sensor_id;sensor_type;location;lat;lon;timestamp;temperature;humidity
6863;DHT22;3470;48.738;9.616;2024-01-07T09:06:23;2.70;99.90
6863;DHT22;3470;48.738;9.616;2024-01-07T09:08:49;2.70;99.90
6863;DHT22;3470;48.738;9.616;2024-01-07T09:11:18;2.70;99.90
6863;DHT22;3470;48.738;9.616;2024-01-07T09:13:43;2.70;99.90
6863;DHT22;3470;48.738;9.616;2024-01-07T09:16:10;2.70;99.90
6863;DHT22;3470;48.738;9.616;2024-01-07T09:18:36;2.70;99.90
6863;DHT22;3470;48.738;9.616;2024-01-07T09:21:02;2.60;99.90
6863;DHT22;3470;48.738;9.616;2024-01-07T09:23:28;2.60;99.90
6863;DHT22;3470;48.738;9.616;2024-01-07T09:25:53;2.60;99.90
6863;DHT22;3470;48.738;9.616;2024-01-07T09:28:19;2.50;99.90
6863;DHT22;3470;48.738;9.616;2024-01-07T09:30:45;2.50;99.90
6863;DHT22;3470;48.738;9.616;2024-01-07T09:33:10;2.50;99.90
6863;DHT22;3470;48.738;9.616;2024-01-07T09:35:36;2.60;99.90
6863;DHT22;3470;48.738;9.616;2024-01-07T09:38:01;2.50;99.90
6863;DHT22;3470;48.738;9.616;2024-01-07T09:40:27;2.40;99.90
6863;DHT22;3470;48.738;9.616;2024-01-07T09:42:53;2.40;99.90
6863;DHT22;3470;48.738;9.616;2024-01-07T09:45:20;2.40;99.90
6863;DHT22;3470;48.738;9.616;2024-01-07T09:47:47;2.30;99.90
6863;DHT22;3470;48.738;9.616;2024-01-07T09:50:13;2.30;99.90
6863;DHT22;3470;48.738;9.616;2024-01-07T09:52:43;2.30;99.90
6863;DHT22;3470;48.738;9.616;2024-01-07T18:56:45;-1.40;99.90
6863;DHT22;3470;48.738;9.616;2024-01-07T18:59:11;-1.40;99.90
6863;DHT22;3470;48.738;9.616;2024-01-07T19:01:37;-1.40;99.90
6863;DHT22;3470;48.738;9.616;2024-01-07T19:04:04;-1.40;99.90
6863;DHT22;3470;48.738;9.616;2024-01-07T19:06:30;-1.40;99.90
6863;DHT22;3470;48.738;9.616;2024-01-07T19:08:55;-1.40;99.90
6863;DHT22;3470;48.738;9.616;2024-01-07T19:11:21;-1.40;99.90
6863;DHT22;3470;48.738;9.616;2024-01-07T19:13:47;-1.40;99.90
6863;DHT22;3470;48.738;9.616;2024-01-07T19:16:12;-1.40;99.90
6863;DHT22;3470;48.738;9.616;2024-01-07T19:18:38;-1.50;99.90
6863;DHT22;3470;48.738;9.616;2024-01-07T19:21:04;-1.50;99.90
6863;DHT22;3470;48.738;9.616;2024-01-07T19:23:30;-1.50;99.90
6863;DHT22;3470;48.738;9.616;2024-01-07T19:25:58;-1.60;99.90
6863;DHT22;3470;48.738;9.616;2024-01-07T19:28:24;-1.60;99.90
6863;DHT22;3470;48.738;9.616;2024-01-07T19:30:49;-1.60;99.90
6863;DHT22;3470;48.738;9.616;2024-01-07T19:33:17;-1.70;99.90
6863;DHT22;3470;48.738;9.616;2024-01-07T19:35:45;-1.70;99.90
6863;DHT22;3470;48.738;9.616;2024-01-07T19:38:10;-1.70;99.90
6863;DHT22;3470;48.738;9.616;2024-01-07T19:40:36;-1.70;99.90
6863;DHT22;3470;48.738;9.616;2024-01-07T19:43:01;-1.80;99.90
6863;DHT22;3470;48.738;9.616;2024-01-07T19:45:27;-1.80;99.90
6863;DHT22;3470;48.738;9.616;2024-01-07T19:47:54;-1.80;99.90
6863;DHT22;3470;48.738;9.616;2024-01-07T19:50:20;-1.80;99.90
6863;DHT22;3470;48.738;9.616;2024-01-07T19:52:46;-1.80;99.90
6863;DHT22;3470;48.738;9.616;2024-01-07T19:55:12;-1.80;99.90
6863;DHT22;3470;48.738;9.616;2024-01-07T19:57:38;-1.80;99.90
6863;DHT22;3470;48.738;9.616;2024-01-07T20:00:04;-1.80;99.90
6863;DHT22;3470;48.738;9.616;2024-01-07T20:02:30;-1.80;99.90
6863;DHT22;3470;48.738;9.616;2024-01-07T20:04:55;-1.80;99.90
6863;DHT22;3470;48.738;9.616;2024-01-07T20:07:21;-1.80;99.90
6863;DHT22;3470;48.738;9.616;2024-01-07T20:09:46;-1.90;99.90
6863;DHT22;3470;48.738;9.616;2024-01-07T20:12:12;-1.90;99.90
6863;DHT22;3470;48.738;9.616;2024-01-07T20:14:37;-1.90;99.90
6863;DHT22;3470;48.738;9.616;2024-01-07T20:17:03;-1.90;99.90
6863;DHT22;3470;48.738;9.616;2024-01-07T20:19:30;-1.90;99.90
6863;DHT22;3470;48.738;9.616;2024-01-07T20:21:55;-2.00;99.90
6863;DHT22;3470;48.738;9.616;2024-01-07T20:24:21;-2.00;99.90
6863;DHT22;3470;48.738;9.616;2024-01-07T20:26:47;-2.00;99.90
6863;DHT22;3470;48.738;9.616;2024-01-07T20:29:12;-2.10;99.90
6863;DHT22;3470;48.738;9.616;2024-01-07T20:31:38;-2.10;99.90
6863;DHT22;3470;48.738;9.616;2024-01-07T20:34:03;-2.10;99.90
6863;DHT22;3470;48.738;9.616;2024-01-07T20:36:32;-2.10;99.90
6863;DHT22;3470;48.738;9.616;2024-01-07T20:38:58;-2.10;99.90
6863;DHT22;3470;48.738;9.616;2024-01-07T20:41:23;-2.20;99.90
6863;DHT22;3470;48.738;9.616;2024-01-07T20:43:49;-2.10;99.90
6863;DHT22;3470;48.738;9.616;2024-01-07T20:46:19;-2.20;99.90
6863;DHT22;3470;48.738;9.616;2024-01-07T20:48:45;-2.20;99.90
6863;DHT22;3470;48.738;9.616;2024-01-07T20:51:12;-2.20;99.90
6863;DHT22;3470;48.738;9.616;2024-01-07T20:53:38;-2.30;99.90
6863;DHT22;3470;48.738;9.616;2024-01-07T20:56:04;-2.30;99.90
6863;DHT22;3470;48.738;9.616;2024-01-07T20:58:30;-2.30;99.90
6863;DHT22;3470;48.738;9.616;2024-01-07T21:00:56;-2.30;99.90
6863;DHT22;3470;48.738;9.616;2024-01-07T21:03:22;-2.30;99.90
6863;DHT22;3470;48.738;9.616;2024-01-07T21:05:48;-2.30;99.90
6863;DHT22;3470;48.738;9.616;2024-01-07T21:08:14;-2.40;99.90
6863;DHT22;3470;48.738;9.616;2024-01-07T21:10:39;-2.40;99.90
6863;DHT22;3470;48.738;9.616;2024-01-07T21:13:06;-2.40;99.90
6863;DHT22;3470;48.738;9.616;2024-01-07T21:15:32;-2.40;99.90
6863;DHT22;3470;48.738;9.616;2024-01-07T21:18:00;-2.50;99.90
6863;DHT22;3470;48.738;9.616;2024-01-07T21:20:30;-2.50;99.90
6863;DHT22;3470;48.738;9.616;2024-01-07T21:22:57;-2.50;99.90
6863;DHT22;3470;48.738;9.616;2024-01-07T21:25:23;-2.50;99.90
6863;DHT22;3470;48.738;9.616;2024-01-07T21:27:49;-2.50;99.90
6863;DHT22;3470;48.738;9.616;2024-01-07T21:30:15;-2.50;99.90
6863;DHT22;3470;48.738;9.616;2024-01-07T21:32:41;-2.50;99.90
6863;DHT22;3470;48.738;9.616;2024-01-07T21:35:08;-2.60;99.90
6863;DHT22;3470;48.738;9.616;2024-01-07T21:37:34;-2.60;99.90
